sensor_id;sensor_type;location;lat;lon;timestamp;P1;durP1;ratioP1;P2;durP2;ratioP2
35540;SDS011;21650;48.840;9.162;2023-05-07T00:00:32;8.87;;;4.43;;
35540;SDS011;21650;48.840;9.162;2023-05-07T00:02:59;7.37;;;4.77;;
35540;SDS011;21650;48.840;9.162;2023-05-07T00:05:24;6.20;;;4.20;;
35540;SDS011;21650;48.840;9.162;2023-05-07T00:07:50;5.87;;;3.70;;
35540;SDS011;21650;48.840;9.162;2023-05-07T00:10:17;12.30;;;5.47;;
35540;SDS011;21650;48.840;9.162;2023-05-07T00:12:43;6.33;;;4.50;;
35540;SDS011;21650;48.840;9.162;2023-05-07T00:15:09;6.10;;;4.33;;
35540;SDS011;21650;48.840;9.162;2023-05-07T00:17:35;5.33;;;4.20;;
35540;SDS011;21650;48.840;9.162;2023-05-07T00:20:01;7.60;;;4.17;;
35540;SDS011;21650;48.840;9.162;2023-05-07T00:22:28;6.77;;;4.10;;
35540;SDS011;21650;48.840;9.162;2023-05-07T00:24:55;7.10;;;4.20;;
35540;SDS011;21650;48.840;9.162;2023-05-07T00:27:21;5.27;;;3.97;;
35540;SDS011;21650;48.840;9.162;2023-05-07T00:29:47;5.90;;;4.13;;
35540;SDS011;21650;48.840;9.162;2023-05-07T00:32:13;4.70;;;4.00;;
35540;SDS011;21650;48.840;9.162;2023-05-07T00:34:38;6.10;;;4.30;;
35540;SDS011;21650;48.840;9.162;2023-05-07T00:37:04;4.83;;;4.20;;
35540;SDS011;21650;48.840;9.162;2023-05-07T00:39:30;7.43;;;4.30;;
35540;SDS011;21650;48.840;9.162;2023-05-07T00:41:55;5.80;;;4.43;;
35540;SDS011;21650;48.840;9.162;2023-05-07T00:44:21;6.80;;;4.50;;
35540;SDS011;21650;48.840;9.162;2023-05-07T00:46:47;6.87;;;4.43;;
35540;SDS011;21650;48.840;9.162;2023-05-07T00:49:14;6.57;;;5.00;;
35540;SDS011;21650;48.840;9.162;2023-05-07T00:51:40;5.03;;;3.97;;
35540;SDS011;21650;48.840;9.162;2023-05-07T00:54:06;5.67;;;4.37;;
35540;SDS011;21650;48.840;9.162;2023-05-07T00:56:33;11.53;;;4.87;;
35540;SDS011;21650;48.840;9.162;2023-05-07T00:59:00;6.10;;;4.07;;
35540;SDS011;21650;48.840;9.162;2023-05-07T01:01:26;6.87;;;4.43;;
35540;SDS011;21650;48.840;9.162;2023-05-07T01:03:52;5.87;;;4.20;;
35540;SDS011;21650;48.840;9.162;2023-05-07T01:06:18;7.13;;;4.67;;
35540;SDS011;21650;48.840;9.162;2023-05-07T01:08:46;9.73;;;5.00;;
35540;SDS011;21650;48.840;9.162;2023-05-07T01:11:12;6.80;;;4.57;;
35540;SDS011;21650;48.840;9.162;2023-05-07T01:13:38;9.40;;;5.00;;
35540;SDS011;21650;48.840;9.162;2023-05-07T01:16:05;6.87;;;4.40;;
35540;SDS011;21650;48.840;9.162;2023-05-07T01:18:31;10.23;;;4.80;;
35540;SDS011;21650;48.840;9.162;2023-05-07T01:20:58;5.43;;;4.63;;
35540;SDS011;21650;48.840;9.162;2023-05-07T01:23:25;7.60;;;5.07;;
35540;SDS011;21650;48.840;9.162;2023-05-07T01:25:52;6.63;;;4.90;;
35540;SDS011;21650;48.840;9.162;2023-05-07T01:28:18;7.47;;;4.93;;
35540;SDS011;21650;48.840;9.162;2023-05-07T01:30:45;7.23;;;4.93;;
35540;SDS011;21650;48.840;9.162;2023-05-07T01:33:15;5.80;;;4.53;;
35540;SDS011;21650;48.840;9.162;2023-05-07T01:35:45;12.03;;;4.60;;
35540;SDS011;21650;48.840;9.162;2023-05-07T01:38:13;6.77;;;5.10;;
35540;SDS011;21650;48.840;9.162;2023-05-07T01:40:39;6.90;;;5.07;;
35540;SDS011;21650;48.840;9.162;2023-05-07T01:43:05;6.70;;;4.77;;
35540;SDS011;21650;48.840;9.162;2023-05-07T01:45:31;7.80;;;5.00;;
35540;SDS011;21650;48.840;9.162;2023-05-07T01:47:58;5.93;;;4.93;;
35540;SDS011;21650;48.840;9.162;2023-05-07T01:50:25;7.70;;;4.80;;
35540;SDS011;21650;48.840;9.162;2023-05-07T01:52:50;6.50;;;4.73;;
35540;SDS011;21650;48.840;9.162;2023-05-07T01:55:16;5.23;;;4.50;;
35540;SDS011;21650;48.840;9.162;2023-05-07T01:57:42;7.40;;;4.90;;
35540;SDS011;21650;48.840;9.162;2023-05-07T02:00:08;6.67;;;4.33;;
35540;SDS011;21650;48.840;9.162;2023-05-07T02:02:34;7.63;;;5.30;;
35540;SDS011;21650;48.840;9.162;2023-05-07T02:05:00;5.33;;;4.30;;
35540;SDS011;21650;48.840;9.162;2023-05-07T02:07:28;9.07;;;5.10;;
35540;SDS011;21650;48.840;9.162;2023-05-07T02:09:54;7.70;;;4.80;;
35540;SDS011;21650;48.840;9.162;2023-05-07T02:12:22;6.80;;;5.03;;
35540;SDS011;21650;48.840;9.162;2023-05-07T02:14:48;5.60;;;4.37;;
35540;SDS011;21650;48.840;9.162;2023-05-07T02:17:14;9.20;;;5.33;;
35540;SDS011;21650;48.840;9.162;2023-05-07T02:19:40;6.60;;;4.43;;
35540;SDS011;21650;48.840;9.162;2023-05-07T02:22:06;6.17;;;4.60;;
35540;SDS011;21650;48.840;9.162;2023-05-07T02:24:32;5.27;;;4.23;;
35540;SDS011;21650;48.840;9.162;2023-05-07T02:26:58;5.03;;;4.00;;
35540;SDS011;21650;48.840;9.162;2023-05-07T02:29:23;5.17;;;4.67;;
35540;SDS011;21650;48.840;9.162;2023-05-07T02:31:49;5.33;;;3.87;;
35540;SDS011;21650;48.840;9.162;2023-05-07T02:34:16;6.50;;;4.67;;
35540;SDS011;21650;48.840;9.162;2023-05-07T02:36:42;5.30;;;4.43;;
35540;SDS011;21650;48.840;9.162;2023-05-07T02:39:08;6.60;;;4.60;;
35540;SDS011;21650;48.840;9.162;2023-05-07T02:41:33;6.80;;;4.47;;
35540;SDS011;21650;48.840;9.162;2023-05-07T02:43:59;6.60;;;5.13;;
35540;SDS011;21650;48.840;9.162;2023-05-07T02:46:25;6.43;;;4.40;;
35540;SDS011;21650;48.840;9.162;2023-05-07T02:48:50;6.57;;;4.57;;
35540;SDS011;21650;48.840;9.162;2023-05-07T02:51:19;6.07;;;4.60;;
35540;SDS011;21650;48.840;9.162;2023-05-07T02:53:46;5.70;;;4.43;;
35540;SDS011;21650;48.840;9.162;2023-05-07T02:56:12;5.80;;;4.40;;
35540;SDS011;21650;48.840;9.162;2023-05-07T02:58:37;5.33;;;4.37;;
35540;SDS011;21650;48.840;9.162;2023-05-07T03:01:07;4.07;;;3.57;;
35540;SDS011;21650;48.840;9.162;2023-05-07T03:03:33;5.47;;;4.10;;
35540;SDS011;21650;48.840;9.162;2023-05-07T03:05:58;6.37;;;4.40;;
35540;SDS011;21650;48.840;9.162;2023-05-07T03:08:24;7.33;;;4.53;;
35540;SDS011;21650;48.840;9.162;2023-05-07T03:10:50;4.30;;;3.90;;
35540;SDS011;21650;48.840;9.162;2023-05-07T03:13:16;7.70;;;4.40;;
35540;SDS011;21650;48.840;9.162;2023-05-07T03:15:41;5.10;;;4.13;;
35540;SDS011;21650;48.840;9.162;2023-05-07T03:18:07;5.43;;;3.83;;
35540;SDS011;21650;48.840;9.162;2023-05-07T03:20:33;6.27;;;4.33;;
35540;SDS011;21650;48.840;9.162;2023-05-07T03:22:58;6.00;;;4.37;;
35540;SDS011;21650;48.840;9.162;2023-05-07T03:25:24;6.47;;;4.40;;
35540;SDS011;21650;48.840;9.162;2023-05-07T03:27:50;5.73;;;3.77;;
35540;SDS011;21650;48.840;9.162;2023-05-07T03:30:15;5.07;;;4.03;;
35540;SDS011;21650;48.840;9.162;2023-05-07T03:32:41;4.80;;;3.53;;
35540;SDS011;21650;48.840;9.162;2023-05-07T03:35:06;6.47;;;4.30;;
35540;SDS011;21650;48.840;9.162;2023-05-07T03:37:32;7.20;;;4.27;;
35540;SDS011;21650;48.840;9.162;2023-05-07T03:39:58;5.63;;;4.27;;
35540;SDS011;21650;48.840;9.162;2023-05-07T03:42:23;6.20;;;4.50;;
35540;SDS011;21650;48.840;9.162;2023-05-07T03:44:50;5.10;;;4.17;;
35540;SDS011;21650;48.840;9.162;2023-05-07T03:47:15;4.60;;;4.07;;
35540;SDS011;21650;48.840;9.162;2023-05-07T03:49:42;5.53;;;3.97;;
35540;SDS011;21650;48.840;9.162;2023-05-07T03:52:09;8.20;;;4.63;;
35540;SDS011;21650;48.840;9.162;2023-05-07T03:54:35;7.20;;;4.17;;
35540;SDS011;21650;48.840;9.162;2023-05-07T03:57:01;7.27;;;4.80;;
35540;SDS011;21650;48.840;9.162;2023-05-07T03:59:26;5.70;;;4.10;;
35540;SDS011;21650;48.840;9.162;2023-05-07T04:01:52;7.90;;;4.60;;
35540;SDS011;21650;48.840;9.162;2023-05-07T04:04:17;5.43;;;4.23;;
35540;SDS011;21650;48.840;9.162;2023-05-07T04:06:43;6.37;;;4.43;;
35540;SDS011;21650;48.840;9.162;2023-05-07T04:09:08;5.97;;;4.13;;
35540;SDS011;21650;48.840;9.162;2023-05-07T04:11:35;6.73;;;4.23;;
35540;SDS011;21650;48.840;9.162;2023-05-07T04:14:01;7.13;;;4.20;;
35540;SDS011;21650;48.840;9.162;2023-05-07T04:16:26;11.80;;;4.93;;
35540;SDS011;21650;48.840;9.162;2023-05-07T04:18:52;5.97;;;4.10;;
35540;SDS011;21650;48.840;9.162;2023-05-07T04:21:18;8.73;;;4.20;;
35540;SDS011;21650;48.840;9.162;2023-05-07T04:23:48;8.50;;;4.43;;
35540;SDS011;21650;48.840;9.162;2023-05-07T04:26:14;7.27;;;4.17;;
35540;SDS011;21650;48.840;9.162;2023-05-07T04:28:40;6.70;;;4.60;;
35540;SDS011;21650;48.840;9.162;2023-05-07T04:31:06;6.60;;;4.40;;
35540;SDS011;21650;48.840;9.162;2023-05-07T04:33:32;5.63;;;4.33;;
35540;SDS011;21650;48.840;9.162;2023-05-07T04:36:00;8.60;;;4.53;;
35540;SDS011;21650;48.840;9.162;2023-05-07T04:38:28;6.30;;;4.87;;
35540;SDS011;21650;48.840;9.162;2023-05-07T04:40:55;5.57;;;4.13;;
35540;SDS011;21650;48.840;9.162;2023-05-07T04:43:21;4.73;;;4.13;;
35540;SDS011;21650;48.840;9.162;2023-05-07T04:45:46;8.40;;;4.60;;
35540;SDS011;21650;48.840;9.162;2023-05-07T04:48:12;4.77;;;4.27;;
35540;SDS011;21650;48.840;9.162;2023-05-07T04:50:39;5.53;;;4.03;;
35540;SDS011;21650;48.840;9.162;2023-05-07T04:53:05;4.50;;;3.77;;
35540;SDS011;21650;48.840;9.162;2023-05-07T04:55:30;6.03;;;4.13;;
35540;SDS011;21650;48.840;9.162;2023-05-07T04:57:56;5.27;;;4.27;;
35540;SDS011;21650;48.840;9.162;2023-05-07T05:00:21;6.27;;;4.80;;
35540;SDS011;21650;48.840;9.162;2023-05-07T05:02:47;5.83;;;4.30;;
35540;SDS011;21650;48.840;9.162;2023-05-07T05:05:13;5.27;;;4.07;;
35540;SDS011;21650;48.840;9.162;2023-05-07T05:07:38;4.73;;;3.77;;
35540;SDS011;21650;48.840;9.162;2023-05-07T05:10:04;4.90;;;4.40;;
35540;SDS011;21650;48.840;9.162;2023-05-07T05:12:30;6.03;;;4.63;;
35540;SDS011;21650;48.840;9.162;2023-05-07T05:14:56;4.90;;;4.40;;
35540;SDS011;21650;48.840;9.162;2023-05-07T05:17:21;6.90;;;4.40;;
35540;SDS011;21650;48.840;9.162;2023-05-07T05:19:47;4.63;;;4.20;;
35540;SDS011;21650;48.840;9.162;2023-05-07T05:22:12;5.93;;;4.47;;
35540;SDS011;21650;48.840;9.162;2023-05-07T05:24:38;6.37;;;4.87;;
35540;SDS011;21650;48.840;9.162;2023-05-07T05:27:03;4.43;;;4.03;;
35540;SDS011;21650;48.840;9.162;2023-05-07T05:29:30;4.50;;;3.63;;
35540;SDS011;21650;48.840;9.162;2023-05-07T05:31:56;6.53;;;4.13;;
35540;SDS011;21650;48.840;9.162;2023-05-07T05:34:22;5.57;;;3.80;;
35540;SDS011;21650;48.840;9.162;2023-05-07T05:36:47;4.67;;;3.60;;
35540;SDS011;21650;48.840;9.162;2023-05-07T05:39:13;5.47;;;3.93;;
35540;SDS011;21650;48.840;9.162;2023-05-07T05:41:39;7.30;;;4.27;;
35540;SDS011;21650;48.840;9.162;2023-05-07T05:44:04;4.73;;;4.23;;
35540;SDS011;21650;48.840;9.162;2023-05-07T05:46:30;6.43;;;4.07;;
35540;SDS011;21650;48.840;9.162;2023-05-07T05:48:56;5.43;;;3.90;;
35540;SDS011;21650;48.840;9.162;2023-05-07T05:51:21;4.93;;;3.53;;
35540;SDS011;21650;48.840;9.162;2023-05-07T05:53:48;5.70;;;4.47;;
35540;SDS011;21650;48.840;9.162;2023-05-07T05:56:13;7.67;;;4.87;;
35540;SDS011;21650;48.840;9.162;2023-05-07T05:58:39;5.60;;;4.27;;
35540;SDS011;21650;48.840;9.162;2023-05-07T06:01:04;4.63;;;4.10;;
35540;SDS011;21650;48.840;9.162;2023-05-07T06:03:30;4.70;;;3.80;;
35540;SDS011;21650;48.840;9.162;2023-05-07T06:05:57;5.97;;;4.03;;
35540;SDS011;21650;48.840;9.162;2023-05-07T06:08:22;5.07;;;3.27;;
35540;SDS011;21650;48.840;9.162;2023-05-07T06:10:48;4.63;;;3.67;;
35540;SDS011;21650;48.840;9.162;2023-05-07T06:13:13;4.80;;;3.40;;
35540;SDS011;21650;48.840;9.162;2023-05-07T06:15:39;4.63;;;4.13;;
35540;SDS011;21650;48.840;9.162;2023-05-07T06:18:04;4.73;;;3.70;;
35540;SDS011;21650;48.840;9.162;2023-05-07T06:20:30;5.30;;;3.63;;
35540;SDS011;21650;48.840;9.162;2023-05-07T06:22:56;6.47;;;4.10;;
35540;SDS011;21650;48.840;9.162;2023-05-07T06:25:21;7.60;;;4.10;;
35540;SDS011;21650;48.840;9.162;2023-05-07T06:27:47;6.60;;;3.77;;
35540;SDS011;21650;48.840;9.162;2023-05-07T06:30:12;5.00;;;3.70;;
35540;SDS011;21650;48.840;9.162;2023-05-07T06:32:39;5.27;;;3.93;;
35540;SDS011;21650;48.840;9.162;2023-05-07T06:35:05;7.23;;;4.67;;
35540;SDS011;21650;48.840;9.162;2023-05-07T06:37:31;6.00;;;3.37;;
35540;SDS011;21650;48.840;9.162;2023-05-07T06:39:56;4.70;;;4.17;;
35540;SDS011;21650;48.840;9.162;2023-05-07T06:42:22;6.03;;;3.80;;
35540;SDS011;21650;48.840;9.162;2023-05-07T06:44:47;3.67;;;3.37;;
35540;SDS011;21650;48.840;9.162;2023-05-07T06:47:13;3.80;;;3.40;;
35540;SDS011;21650;48.840;9.162;2023-05-07T06:49:38;4.33;;;3.77;;
35540;SDS011;21650;48.840;9.162;2023-05-07T06:52:04;5.83;;;3.87;;
35540;SDS011;21650;48.840;9.162;2023-05-07T06:54:29;4.37;;;3.40;;
35540;SDS011;21650;48.840;9.162;2023-05-07T06:56:55;5.97;;;3.20;;
35540;SDS011;21650;48.840;9.162;2023-05-07T06:59:21;5.03;;;3.97;;
35540;SDS011;21650;48.840;9.162;2023-05-07T07:01:47;4.10;;;3.60;;
35540;SDS011;21650;48.840;9.162;2023-05-07T07:04:12;5.23;;;3.93;;
35540;SDS011;21650;48.840;9.162;2023-05-07T07:06:38;4.40;;;3.80;;
35540;SDS011;21650;48.840;9.162;2023-05-07T07:09:03;3.37;;;3.07;;
35540;SDS011;21650;48.840;9.162;2023-05-07T07:11:29;5.43;;;3.70;;
35540;SDS011;21650;48.840;9.162;2023-05-07T07:13:55;5.20;;;4.13;;
35540;SDS011;21650;48.840;9.162;2023-05-07T07:18:54;4.57;;;3.30;;
35540;SDS011;21650;48.840;9.162;2023-05-07T07:21:20;4.27;;;3.47;;
35540;SDS011;21650;48.840;9.162;2023-05-07T07:23:45;3.90;;;3.40;;
35540;SDS011;21650;48.840;9.162;2023-05-07T07:26:11;4.30;;;3.60;;
35540;SDS011;21650;48.840;9.162;2023-05-07T07:28:41;4.10;;;3.70;;
35540;SDS011;21650;48.840;9.162;2023-05-07T07:31:08;6.23;;;3.77;;
35540;SDS011;21650;48.840;9.162;2023-05-07T07:33:34;3.33;;;3.00;;
35540;SDS011;21650;48.840;9.162;2023-05-07T07:36:00;4.00;;;3.47;;
35540;SDS011;21650;48.840;9.162;2023-05-07T07:38:25;3.60;;;3.10;;
35540;SDS011;21650;48.840;9.162;2023-05-07T07:40:51;4.03;;;3.20;;
35540;SDS011;21650;48.840;9.162;2023-05-07T07:43:16;5.23;;;3.60;;
35540;SDS011;21650;48.840;9.162;2023-05-07T07:45:42;6.20;;;3.87;;
35540;SDS011;21650;48.840;9.162;2023-05-07T07:48:07;4.53;;;3.00;;
35540;SDS011;21650;48.840;9.162;2023-05-07T07:50:33;3.47;;;3.17;;
35540;SDS011;21650;48.840;9.162;2023-05-07T07:52:58;8.47;;;3.37;;
35540;SDS011;21650;48.840;9.162;2023-05-07T07:55:25;5.00;;;3.60;;
35540;SDS011;21650;48.840;9.162;2023-05-07T07:57:52;6.07;;;3.47;;
35540;SDS011;21650;48.840;9.162;2023-05-07T08:00:17;4.23;;;3.20;;
35540;SDS011;21650;48.840;9.162;2023-05-07T08:02:43;4.23;;;3.47;;
35540;SDS011;21650;48.840;9.162;2023-05-07T08:05:09;6.73;;;3.00;;
35540;SDS011;21650;48.840;9.162;2023-05-07T08:07:34;5.93;;;3.27;;
35540;SDS011;21650;48.840;9.162;2023-05-07T08:10:00;3.50;;;2.93;;
35540;SDS011;21650;48.840;9.162;2023-05-07T08:12:25;7.50;;;3.63;;
35540;SDS011;21650;48.840;9.162;2023-05-07T08:14:51;4.07;;;2.90;;
35540;SDS011;21650;48.840;9.162;2023-05-07T08:17:17;4.33;;;2.90;;
35540;SDS011;21650;48.840;9.162;2023-05-07T08:19:42;5.83;;;2.97;;
35540;SDS011;21650;48.840;9.162;2023-05-07T08:22:09;4.53;;;3.27;;
35540;SDS011;21650;48.840;9.162;2023-05-07T08:24:35;6.27;;;3.67;;
35540;SDS011;21650;48.840;9.162;2023-05-07T08:27:01;4.33;;;3.77;;
35540;SDS011;21650;48.840;9.162;2023-05-07T08:29:26;7.77;;;3.63;;
35540;SDS011;21650;48.840;9.162;2023-05-07T08:31:52;4.33;;;3.20;;
35540;SDS011;21650;48.840;9.162;2023-05-07T08:34:18;3.47;;;3.17;;
35540;SDS011;21650;48.840;9.162;2023-05-07T08:36:43;4.20;;;3.30;;
35540;SDS011;21650;48.840;9.162;2023-05-07T08:39:11;5.33;;;2.80;;
35540;SDS011;21650;48.840;9.162;2023-05-07T08:41:37;3.53;;;3.20;;
35540;SDS011;21650;48.840;9.162;2023-05-07T08:44:03;5.50;;;3.77;;
35540;SDS011;21650;48.840;9.162;2023-05-07T08:46:36;4.70;;;3.40;;
35540;SDS011;21650;48.840;9.162;2023-05-07T08:49:02;4.63;;;3.33;;
35540;SDS011;21650;48.840;9.162;2023-05-07T08:51:28;6.77;;;3.13;;
35540;SDS011;21650;48.840;9.162;2023-05-07T08:53:53;5.07;;;2.83;;
35540;SDS011;21650;48.840;9.162;2023-05-07T08:56:19;2.80;;;2.60;;
35540;SDS011;21650;48.840;9.162;2023-05-07T08:58:45;3.47;;;3.17;;
35540;SDS011;21650;48.840;9.162;2023-05-07T09:01:14;4.97;;;3.13;;
35540;SDS011;21650;48.840;9.162;2023-05-07T09:03:41;3.67;;;3.20;;
35540;SDS011;21650;48.840;9.162;2023-05-07T09:06:11;3.67;;;3.03;;
35540;SDS011;21650;48.840;9.162;2023-05-07T09:08:37;4.33;;;2.97;;
35540;SDS011;21650;48.840;9.162;2023-05-07T09:11:03;3.27;;;2.97;;
35540;SDS011;21650;48.840;9.162;2023-05-07T09:13:29;3.80;;;2.70;;
35540;SDS011;21650;48.840;9.162;2023-05-07T09:15:55;3.27;;;2.90;;
35540;SDS011;21650;48.840;9.162;2023-05-07T09:18:21;3.77;;;2.90;;
35540;SDS011;21650;48.840;9.162;2023-05-07T09:20:49;3.47;;;3.17;;
35540;SDS011;21650;48.840;9.162;2023-05-07T09:23:15;6.30;;;2.93;;
35540;SDS011;21650;48.840;9.162;2023-05-07T09:25:41;2.77;;;2.47;;
35540;SDS011;21650;48.840;9.162;2023-05-07T09:28:07;4.03;;;2.80;;
35540;SDS011;21650;48.840;9.162;2023-05-07T09:30:32;3.87;;;2.40;;
35540;SDS011;21650;48.840;9.162;2023-05-07T09:32:59;2.83;;;2.20;;
35540;SDS011;21650;48.840;9.162;2023-05-07T09:35:26;2.27;;;2.00;;
35540;SDS011;21650;48.840;9.162;2023-05-07T09:37:53;5.17;;;2.23;;
35540;SDS011;21650;48.840;9.162;2023-05-07T09:40:24;2.80;;;2.50;;
35540;SDS011;21650;48.840;9.162;2023-05-07T09:42:51;2.23;;;1.97;;
35540;SDS011;21650;48.840;9.162;2023-05-07T09:45:26;3.20;;;2.27;;
35540;SDS011;21650;48.840;9.162;2023-05-07T09:47:56;2.17;;;1.87;;
35540;SDS011;21650;48.840;9.162;2023-05-07T09:50:27;2.70;;;1.87;;
35540;SDS011;21650;48.840;9.162;2023-05-07T09:52:55;4.30;;;2.27;;
35540;SDS011;21650;48.840;9.162;2023-05-07T09:55:21;2.57;;;2.17;;
35540;SDS011;21650;48.840;9.162;2023-05-07T09:57:51;3.50;;;2.20;;
35540;SDS011;21650;48.840;9.162;2023-05-07T10:00:21;3.70;;;2.63;;
35540;SDS011;21650;48.840;9.162;2023-05-07T10:02:48;2.50;;;2.30;;
35540;SDS011;21650;48.840;9.162;2023-05-07T10:05:16;5.40;;;2.50;;
35540;SDS011;21650;48.840;9.162;2023-05-07T10:07:43;2.53;;;2.33;;
35540;SDS011;21650;48.840;9.162;2023-05-07T10:10:09;2.30;;;1.90;;
35540;SDS011;21650;48.840;9.162;2023-05-07T10:12:36;2.97;;;1.93;;
35540;SDS011;21650;48.840;9.162;2023-05-07T10:15:08;2.97;;;2.17;;
35540;SDS011;21650;48.840;9.162;2023-05-07T10:17:38;2.27;;;1.70;;
35540;SDS011;21650;48.840;9.162;2023-05-07T10:20:05;3.13;;;2.10;;
35540;SDS011;21650;48.840;9.162;2023-05-07T10:22:32;3.20;;;1.73;;
35540;SDS011;21650;48.840;9.162;2023-05-07T10:25:09;3.93;;;2.07;;
35540;SDS011;21650;48.840;9.162;2023-05-07T10:28:08;3.23;;;1.97;;
35540;SDS011;21650;48.840;9.162;2023-05-07T10:33:22;2.53;;;2.13;;
35540;SDS011;21650;48.840;9.162;2023-05-07T10:35:51;2.47;;;1.90;;
35540;SDS011;21650;48.840;9.162;2023-05-07T10:38:20;2.00;;;1.70;;
35540;SDS011;21650;48.840;9.162;2023-05-07T10:40:46;3.13;;;1.90;;
35540;SDS011;21650;48.840;9.162;2023-05-07T10:43:12;2.10;;;1.77;;
35540;SDS011;21650;48.840;9.162;2023-05-07T10:45:37;3.58;;;2.33;;
35540;SDS011;21650;48.840;9.162;2023-05-07T10:48:21;2.80;;;2.00;;
35540;SDS011;21650;48.840;9.162;2023-05-07T10:50:46;8.67;;;2.70;;
35540;SDS011;21650;48.840;9.162;2023-05-07T10:55:45;2.17;;;1.87;;
35540;SDS011;21650;48.840;9.162;2023-05-07T11:00:55;6.73;;;2.47;;
35540;SDS011;21650;48.840;9.162;2023-05-07T11:03:22;4.35;;;2.08;;
35540;SDS011;21650;48.840;9.162;2023-05-07T11:05:52;2.20;;;2.00;;
35540;SDS011;21650;48.840;9.162;2023-05-07T11:14:13;3.80;;;2.00;;
35540;SDS011;21650;48.840;9.162;2023-05-07T11:16:39;5.70;;;2.40;;
35540;SDS011;21650;48.840;9.162;2023-05-07T11:19:06;4.20;;;2.00;;
35540;SDS011;21650;48.840;9.162;2023-05-07T11:24:08;2.03;;;1.83;;
35540;SDS011;21650;48.840;9.162;2023-05-07T11:26:42;3.27;;;2.10;;
35540;SDS011;21650;48.840;9.162;2023-05-07T11:31:48;1.97;;;1.87;;
35540;SDS011;21650;48.840;9.162;2023-05-07T11:34:15;4.27;;;2.00;;
35540;SDS011;21650;48.840;9.162;2023-05-07T11:36:45;3.97;;;1.80;;
35540;SDS011;21650;48.840;9.162;2023-05-07T11:39:23;3.03;;;2.27;;
35540;SDS011;21650;48.840;9.162;2023-05-07T11:41:52;2.67;;;2.37;;
35540;SDS011;21650;48.840;9.162;2023-05-07T11:44:18;3.40;;;2.30;;
35540;SDS011;21650;48.840;9.162;2023-05-07T11:46:44;3.97;;;2.70;;
35540;SDS011;21650;48.840;9.162;2023-05-07T11:49:10;5.33;;;2.50;;
35540;SDS011;21650;48.840;9.162;2023-05-07T11:51:36;4.03;;;2.30;;
35540;SDS011;21650;48.840;9.162;2023-05-07T11:54:03;3.13;;;2.10;;
35540;SDS011;21650;48.840;9.162;2023-05-07T11:56:33;2.60;;;1.87;;
35540;SDS011;21650;48.840;9.162;2023-05-07T11:59:00;2.07;;;1.87;;
35540;SDS011;21650;48.840;9.162;2023-05-07T12:01:26;4.20;;;2.77;;
35540;SDS011;21650;48.840;9.162;2023-05-07T12:03:51;2.97;;;2.20;;
35540;SDS011;21650;48.840;9.162;2023-05-07T12:06:17;3.57;;;2.23;;
35540;SDS011;21650;48.840;9.162;2023-05-07T12:08:44;3.63;;;2.40;;
35540;SDS011;21650;48.840;9.162;2023-05-07T12:11:12;3.20;;;2.43;;
35540;SDS011;21650;48.840;9.162;2023-05-07T12:13:46;2.97;;;2.70;;
35540;SDS011;21650;48.840;9.162;2023-05-07T12:16:12;4.37;;;2.00;;
35540;SDS011;21650;48.840;9.162;2023-05-07T12:18:37;4.00;;;2.03;;
35540;SDS011;21650;48.840;9.162;2023-05-07T12:21:04;2.73;;;1.80;;
35540;SDS011;21650;48.840;9.162;2023-05-07T12:23:31;2.47;;;2.27;;
35540;SDS011;21650;48.840;9.162;2023-05-07T12:25:57;2.60;;;2.07;;
35540;SDS011;21650;48.840;9.162;2023-05-07T12:28:24;3.07;;;1.97;;
35540;SDS011;21650;48.840;9.162;2023-05-07T12:30:50;4.03;;;1.97;;
35540;SDS011;21650;48.840;9.162;2023-05-07T12:33:17;2.53;;;2.20;;
35540;SDS011;21650;48.840;9.162;2023-05-07T12:35:44;3.37;;;2.33;;
35540;SDS011;21650;48.840;9.162;2023-05-07T12:38:10;2.97;;;2.03;;
35540;SDS011;21650;48.840;9.162;2023-05-07T12:40:38;3.80;;;2.00;;
35540;SDS011;21650;48.840;9.162;2023-05-07T12:45:54;4.13;;;2.47;;
35540;SDS011;21650;48.840;9.162;2023-05-07T12:48:21;6.50;;;2.30;;
35540;SDS011;21650;48.840;9.162;2023-05-07T12:50:50;4.10;;;2.10;;
35540;SDS011;21650;48.840;9.162;2023-05-07T12:53:17;4.33;;;2.27;;
35540;SDS011;21650;48.840;9.162;2023-05-07T12:55:46;4.37;;;2.27;;
35540;SDS011;21650;48.840;9.162;2023-05-07T12:58:14;2.70;;;2.33;;
35540;SDS011;21650;48.840;9.162;2023-05-07T13:00:43;4.23;;;2.30;;
35540;SDS011;21650;48.840;9.162;2023-05-07T13:03:10;2.87;;;1.97;;
35540;SDS011;21650;48.840;9.162;2023-05-07T13:05:36;5.33;;;2.50;;
35540;SDS011;21650;48.840;9.162;2023-05-07T13:08:01;4.17;;;2.23;;
35540;SDS011;21650;48.840;9.162;2023-05-07T13:10:27;3.70;;;1.90;;
35540;SDS011;21650;48.840;9.162;2023-05-07T13:12:53;4.20;;;2.17;;
35540;SDS011;21650;48.840;9.162;2023-05-07T13:15:19;3.60;;;2.10;;
35540;SDS011;21650;48.840;9.162;2023-05-07T13:17:45;3.77;;;2.10;;
35540;SDS011;21650;48.840;9.162;2023-05-07T13:20:11;5.13;;;1.60;;
35540;SDS011;21650;48.840;9.162;2023-05-07T13:22:40;3.90;;;1.80;;
35540;SDS011;21650;48.840;9.162;2023-05-07T13:25:06;1.97;;;1.63;;
35540;SDS011;21650;48.840;9.162;2023-05-07T13:27:32;5.30;;;2.13;;
35540;SDS011;21650;48.840;9.162;2023-05-07T13:30:01;4.70;;;2.27;;
35540;SDS011;21650;48.840;9.162;2023-05-07T13:32:28;4.87;;;1.73;;
35540;SDS011;21650;48.840;9.162;2023-05-07T13:34:53;4.73;;;1.70;;
35540;SDS011;21650;48.840;9.162;2023-05-07T13:37:19;3.63;;;2.47;;
35540;SDS011;21650;48.840;9.162;2023-05-07T13:39:45;2.43;;;1.50;;
35540;SDS011;21650;48.840;9.162;2023-05-07T13:42:10;2.93;;;1.40;;
35540;SDS011;21650;48.840;9.162;2023-05-07T13:44:36;13.93;;;2.03;;
35540;SDS011;21650;48.840;9.162;2023-05-07T13:47:01;6.70;;;2.10;;
35540;SDS011;21650;48.840;9.162;2023-05-07T13:49:27;5.93;;;2.30;;
35540;SDS011;21650;48.840;9.162;2023-05-07T13:51:53;4.60;;;1.93;;
35540;SDS011;21650;48.840;9.162;2023-05-07T13:54:18;4.23;;;1.93;;
35540;SDS011;21650;48.840;9.162;2023-05-07T13:56:44;2.33;;;1.60;;
35540;SDS011;21650;48.840;9.162;2023-05-07T13:59:09;7.23;;;1.57;;
35540;SDS011;21650;48.840;9.162;2023-05-07T14:01:35;4.03;;;2.10;;
35540;SDS011;21650;48.840;9.162;2023-05-07T14:04:01;3.80;;;2.00;;
35540;SDS011;21650;48.840;9.162;2023-05-07T14:06:26;6.33;;;2.20;;
35540;SDS011;21650;48.840;9.162;2023-05-07T14:08:52;5.23;;;1.67;;
35540;SDS011;21650;48.840;9.162;2023-05-07T14:11:17;2.77;;;1.70;;
35540;SDS011;21650;48.840;9.162;2023-05-07T14:13:43;2.83;;;1.60;;
35540;SDS011;21650;48.840;9.162;2023-05-07T14:16:08;1.90;;;1.40;;
35540;SDS011;21650;48.840;9.162;2023-05-07T14:18:34;2.63;;;1.10;;
35540;SDS011;21650;48.840;9.162;2023-05-07T14:21:01;2.80;;;1.10;;
35540;SDS011;21650;48.840;9.162;2023-05-07T14:23:27;1.77;;;1.23;;
35540;SDS011;21650;48.840;9.162;2023-05-07T14:25:53;1.90;;;1.30;;
35540;SDS011;21650;48.840;9.162;2023-05-07T14:28:19;2.50;;;1.57;;
35540;SDS011;21650;48.840;9.162;2023-05-07T14:30:44;2.00;;;1.40;;
35540;SDS011;21650;48.840;9.162;2023-05-07T14:33:10;3.20;;;1.50;;
35540;SDS011;21650;48.840;9.162;2023-05-07T14:35:36;2.90;;;1.73;;
35540;SDS011;21650;48.840;9.162;2023-05-07T14:38:01;1.60;;;1.50;;
35540;SDS011;21650;48.840;9.162;2023-05-07T14:40:27;3.43;;;1.20;;
35540;SDS011;21650;48.840;9.162;2023-05-07T14:42:53;2.10;;;1.50;;
35540;SDS011;21650;48.840;9.162;2023-05-07T14:45:18;1.50;;;1.40;;
35540;SDS011;21650;48.840;9.162;2023-05-07T14:47:45;2.33;;;1.60;;
35540;SDS011;21650;48.840;9.162;2023-05-07T14:50:11;3.00;;;1.50;;
35540;SDS011;21650;48.840;9.162;2023-05-07T14:52:36;2.57;;;1.30;;
35540;SDS011;21650;48.840;9.162;2023-05-07T14:55:02;2.23;;;1.50;;
35540;SDS011;21650;48.840;9.162;2023-05-07T14:57:28;2.17;;;1.40;;
35540;SDS011;21650;48.840;9.162;2023-05-07T14:59:54;2.80;;;1.33;;
35540;SDS011;21650;48.840;9.162;2023-05-07T15:02:20;1.13;;;0.93;;
35540;SDS011;21650;48.840;9.162;2023-05-07T15:04:45;2.13;;;1.40;;
35540;SDS011;21650;48.840;9.162;2023-05-07T15:07:12;4.87;;;1.73;;